Terminal Aerodrome Forecast
Issued by NWS

Home | Current Version | Previous Version | Text Only | Print | Product List | Glossary On
Versions: 1 2 3 4 5 6 7 8 9 10 11 12 13 14 15 16 17 18 19 20 21
000
FTUS41 KGYX 072320
TAFRKD
TAF
KRKD 072320Z 0800/0824 18006KT 1/4SM FG VV002
     FM081200 23006KT 4SM -SHRA BR OVC006
     FM081500 27008KT P6SM BKN015 BKN080
     FM081800 29008KT P6SM SCT050 BKN100
      AMD LTD TO CLD VIS AND WIND=

USA.gov is the U.S. government's official web portal to all federal, state and local government web resources and services.